Time;durP1;ratioP1;P1;durP2;ratioP2;P2;SDS_P1;SDS_P2;PMS_P1;PMS_P2;Temp;Humidity;BMP_temperature;BMP_pressure;BME280_temperature;BME280_humidity;BME280_pressure;Samples;Min_cycle;Max_cycle;Signal;HPM_P1;HPM_P2
2023/07/02 00:01:39;;;;;;;10.38;4.60;;;;;;;;;;4971128;28;20745;-69
2023/07/02 00:04:05;;;;;;;7.13;4.38;;;;;;;;;;4966522;28;20650;-70
2023/07/02 00:06:32;;;;;;;8.35;4.95;;;;;;;;;;4983817;23;20396;-74
2023/07/02 00:08:57;;;;;;;8.40;4.47;;;;;;;;;;4972103;28;20192;-74
2023/07/02 00:11:22;;;;;;;9.27;4.88;;;;;;;;;;4971301;28;20176;-74
2023/07/02 00:13:48;;;;;;;10.98;5.20;;;;;;;;;;4970349;28;20176;-74
2023/07/02 00:16:13;;;;;;;8.63;5.65;;;;;;;;;;4971521;28;20184;-74
2023/07/02 00:18:38;;;;;;;14.27;4.97;;;;;;;;;;4971144;28;20245;-74
2023/07/02 00:21:05;;;;;;;13.40;5.93;;;;;;;;;;4962388;28;20565;-73
2023/07/02 00:23:30;;;;;;;13.85;5.18;;;;;;;;;;4967767;28;20181;-74
2023/07/02 00:25:58;;;;;;;11.05;5.22;;;;;;;;;;4968844;28;20180;-74
2023/07/02 00:28:23;;;;;;;10.20;6.03;;;;;;;;;;4970211;28;20549;-74
2023/07/02 00:30:49;;;;;;;14.27;5.18;;;;;;;;;;4969044;28;20160;-73
2023/07/02 00:33:15;;;;;;;12.60;5.72;;;;;;;;;;4971894;28;20211;-73
2023/07/02 00:35:40;;;;;;;13.77;5.78;;;;;;;;;;4971399;28;20184;-74
2023/07/02 00:38:05;;;;;;;16.25;5.68;;;;;;;;;;4963662;28;20200;-73
2023/07/02 00:40:30;;;;;;;15.90;6.28;;;;;;;;;;4969358;28;20942;-74
2023/07/02 00:42:56;;;;;;;10.48;5.35;;;;;;;;;;4971919;28;20222;-73
2023/07/02 00:45:22;;;;;;;15.55;6.15;;;;;;;;;;4962286;28;20188;-73
2023/07/02 00:47:47;;;;;;;10.35;5.45;;;;;;;;;;4970414;28;20200;-72
2023/07/02 00:50:12;;;;;;;12.52;5.05;;;;;;;;;;4962586;28;20204;-73
2023/07/02 00:52:38;;;;;;;12.50;5.22;;;;;;;;;;4967170;28;20592;-73
2023/07/02 00:55:03;;;;;;;10.00;5.15;;;;;;;;;;4971290;28;20184;-73
2023/07/02 00:57:29;;;;;;;11.05;5.90;;;;;;;;;;4969768;28;20227;-72
2023/07/02 00:59:55;;;;;;;12.82;5.93;;;;;;;;;;4971956;28;20394;-73
2023/07/02 01:02:21;;;;;;;13.32;5.82;;;;;;;;;;4968558;28;20587;-72
2023/07/02 01:04:49;;;;;;;12.00;5.53;;;;;;;;;;4967006;28;20184;-73
2023/07/02 01:07:14;;;;;;;17.55;6.38;;;;;;;;;;4966783;28;20299;-73
2023/07/02 01:09:40;;;;;;;14.48;6.20;;;;;;;;;;4967299;28;20215;-73
2023/07/02 01:12:07;;;;;;;14.10;5.90;;;;;;;;;;4967819;28;20191;-73
2023/07/02 01:14:41;;;;;;;9.70;5.85;;;;;;;;;;4964318;28;20252;-73
2023/07/02 01:17:06;;;;;;;12.77;6.35;;;;;;;;;;4969428;28;20291;-73
2023/07/02 01:19:43;;;;;;;14.43;6.43;;;;;;;;;;4969526;28;20264;-73
2023/07/02 01:22:09;;;;;;;15.27;6.50;;;;;;;;;;4965274;28;20208;-74
2023/07/02 01:24:35;;;;;;;9.88;5.43;;;;;;;;;;4973187;28;20209;-73
2023/07/02 01:27:01;;;;;;;12.32;7.00;;;;;;;;;;4975226;28;20686;-74
2023/07/02 01:29:28;;;;;;;9.75;5.80;;;;;;;;;;4974391;28;20183;-73
2023/07/02 01:31:54;;;;;;;10.07;5.43;;;;;;;;;;4975381;28;20585;-73
2023/07/02 01:34:19;;;;;;;13.15;7.05;;;;;;;;;;4976395;28;20182;-74
2023/07/02 01:36:44;;;;;;;13.02;5.97;;;;;;;;;;4976598;28;20207;-73
2023/07/02 01:39:09;;;;;;;12.52;6.60;;;;;;;;;;4968900;28;20180;-74
2023/07/02 01:41:41;;;;;;;16.27;5.97;;;;;;;;;;4963320;28;20209;-73
2023/07/02 01:44:07;;;;;;;12.13;6.65;;;;;;;;;;4972615;28;20193;-72
2023/07/02 01:46:32;;;;;;;13.98;6.35;;;;;;;;;;4971792;28;20196;-72
2023/07/02 01:48:57;;;;;;;13.88;6.18;;;;;;;;;;4971812;28;20674;-72
2023/07/02 01:51:22;;;;;;;14.23;6.05;;;;;;;;;;4969105;28;20651;-73
2023/07/02 01:53:47;;;;;;;14.25;5.95;;;;;;;;;;4974705;28;20185;-73
2023/07/02 01:56:13;;;;;;;15.35;5.95;;;;;;;;;;4972084;28;20656;-72
2023/07/02 01:58:38;;;;;;;13.65;6.55;;;;;;;;;;4967818;28;20646;-72
2023/07/02 02:01:03;;;;;;;14.77;6.45;;;;;;;;;;4967665;28;20211;-73
2023/07/02 02:03:28;;;;;;;16.58;5.68;;;;;;;;;;4974405;28;20177;-72
2023/07/02 02:05:53;;;;;;;10.32;5.53;;;;;;;;;;4978699;28;20177;-72
2023/07/02 02:08:19;;;;;;;17.30;5.85;;;;;;;;;;4973712;28;20211;-72
2023/07/02 02:10:44;;;;;;;17.33;5.90;;;;;;;;;;4970961;28;20618;-72
2023/07/02 02:13:09;;;;;;;14.63;6.65;;;;;;;;;;4972278;28;20187;-73
2023/07/02 02:15:34;;;;;;;20.20;7.07;;;;;;;;;;4974462;28;20572;-73
2023/07/02 02:18:00;;;;;;;25.58;6.25;;;;;;;;;;4972713;28;20200;-73
2023/07/02 02:20:25;;;;;;;15.30;6.60;;;;;;;;;;4965140;28;20188;-73
2023/07/02 02:22:50;;;;;;;15.18;6.20;;;;;;;;;;4964797;28;20260;-73
2023/07/02 02:25:15;;;;;;;14.70;5.95;;;;;;;;;;4972076;28;20235;-73
2023/07/02 02:27:41;;;;;;;18.58;6.95;;;;;;;;;;4972920;28;20184;-73
2023/07/02 02:30:06;;;;;;;15.95;6.30;;;;;;;;;;4977466;28;20286;-74
2023/07/02 02:32:32;;;;;;;13.23;5.82;;;;;;;;;;4965182;28;20188;-73
2023/07/02 02:34:57;;;;;;;15.93;6.80;;;;;;;;;;4964837;28;20245;-73
2023/07/02 02:37:23;;;;;;;15.50;6.78;;;;;;;;;;4968650;28;20196;-73
2023/07/02 02:39:48;;;;;;;16.92;7.38;;;;;;;;;;4974833;28;20176;-73
2023/07/02 02:42:14;;;;;;;10.68;5.93;;;;;;;;;;4966869;28;20566;-72
2023/07/02 02:44:39;;;;;;;17.25;6.43;;;;;;;;;;4963831;28;20208;-73
2023/07/02 02:47:05;;;;;;;15.70;7.05;;;;;;;;;;4994761;28;20244;-73
2023/07/02 02:49:30;;;;;;;20.83;6.38;;;;;;;;;;4974716;28;20264;-73
2023/07/02 02:51:55;;;;;;;14.73;5.70;;;;;;;;;;4970603;28;20256;-73
2023/07/02 02:54:21;;;;;;;16.70;7.45;;;;;;;;;;4974632;28;20266;-73
2023/07/02 02:56:46;;;;;;;14.70;6.72;;;;;;;;;;4974152;28;20232;-72
2023/07/02 02:59:12;;;;;;;14.77;6.05;;;;;;;;;;4972504;28;20199;-73
2023/07/02 03:01:37;;;;;;;18.13;6.22;;;;;;;;;;4971674;28;20196;-72
2023/07/02 03:04:02;;;;;;;21.15;6.88;;;;;;;;;;4974049;28;20199;-72
2023/07/02 03:06:27;;;;;;;18.63;7.97;;;;;;;;;;4970774;28;20204;-72
2023/07/02 03:08:53;;;;;;;14.77;5.82;;;;;;;;;;4969985;28;20192;-73
2023/07/02 03:11:18;;;;;;;20.63;6.93;;;;;;;;;;4972458;28;20168;-72
2023/07/02 03:13:43;;;;;;;8.82;5.47;;;;;;;;;;4972163;28;20670;-73
2023/07/02 03:16:08;;;;;;;15.02;6.35;;;;;;;;;;4972537;28;20188;-73
2023/07/02 03:18:34;;;;;;;16.30;5.95;;;;;;;;;;4974812;28;20187;-72
2023/07/02 03:20:59;;;;;;;14.50;6.10;;;;;;;;;;4968698;28;20267;-72
2023/07/02 03:23:25;;;;;;;21.50;6.63;;;;;;;;;;4966326;28;20684;-72
2023/07/02 03:25:50;;;;;;;15.27;5.80;;;;;;;;;;4973720;28;20219;-72
2023/07/02 03:28:15;;;;;;;17.45;6.53;;;;;;;;;;4973367;28;20216;-73
2023/07/02 03:30:40;;;;;;;20.40;6.22;;;;;;;;;;4975277;28;20169;-73
2023/07/02 03:33:08;;;;;;;21.50;7.18;;;;;;;;;;4973749;28;20188;-73
2023/07/02 03:35:33;;;;;;;18.33;6.15;;;;;;;;;;4962444;28;20180;-72
2023/07/02 03:37:58;;;;;;;11.23;5.78;;;;;;;;;;4962656;28;20215;-72
2023/07/02 03:40:24;;;;;;;22.50;5.50;;;;;;;;;;4961147;28;20239;-72
2023/07/02 03:42:49;;;;;;;13.55;6.28;;;;;;;;;;4970650;28;20210;-72
2023/07/02 03:45:14;;;;;;;18.13;6.38;;;;;;;;;;4972946;28;20198;-72
2023/07/02 03:47:39;;;;;;;19.98;6.28;;;;;;;;;;4971261;28;20196;-72
2023/07/02 03:50:05;;;;;;;15.05;6.15;;;;;;;;;;4973222;28;20186;-72
2023/07/02 03:52:30;;;;;;;14.20;5.75;;;;;;;;;;4972523;28;20196;-72
2023/07/02 03:54:55;;;;;;;14.13;7.03;;;;;;;;;;4973466;28;20264;-72
2023/07/02 03:57:20;;;;;;;17.23;6.57;;;;;;;;;;4973472;28;20286;-72
2023/07/02 03:59:46;;;;;;;19.45;6.53;;;;;;;;;;4968704;28;20180;-72
2023/07/02 04:02:11;;;;;;;15.27;6.30;;;;;;;;;;4970638;28;20211;-72
2023/07/02 04:04:36;;;;;;;15.00;6.55;;;;;;;;;;4971537;28;20176;-71
2023/07/02 04:07:02;;;;;;;19.38;6.75;;;;;;;;;;4973323;28;20754;-72
2023/07/02 04:09:27;;;;;;;20.48;6.88;;;;;;;;;;4968299;28;20191;-72
2023/07/02 04:11:52;;;;;;;15.38;6.15;;;;;;;;;;4973058;28;20173;-72
2023/07/02 04:14:17;;;;;;;14.20;6.68;;;;;;;;;;4969480;28;20587;-72
2023/07/02 04:16:44;;;;;;;18.45;6.85;;;;;;;;;;4970736;28;20219;-72
2023/07/02 04:19:10;;;;;;;15.93;7.10;;;;;;;;;;4972071;28;20184;-72
2023/07/02 04:21:35;;;;;;;20.17;7.38;;;;;;;;;;4972725;28;20209;-72
2023/07/02 04:24:00;;;;;;;18.20;6.38;;;;;;;;;;4971629;28;20180;-72
2023/07/02 04:26:26;;;;;;;11.77;6.43;;;;;;;;;;4965042;28;20200;-72
2023/07/02 04:28:51;;;;;;;26.95;6.55;;;;;;;;;;4967015;28;20185;-72
2023/07/02 04:31:16;;;;;;;19.23;7.50;;;;;;;;;;4962922;28;20179;-72
2023/07/02 04:33:42;;;;;;;13.48;5.93;;;;;;;;;;4966744;28;20180;-72
2023/07/02 04:36:08;;;;;;;15.90;6.00;;;;;;;;;;4967577;28;20184;-71
2023/07/02 04:38:33;;;;;;;15.20;6.15;;;;;;;;;;4958799;28;20220;-71
2023/07/02 04:41:04;;;;;;;14.00;5.65;;;;;;;;;;4963184;28;20180;-72
2023/07/02 04:43:30;;;;;;;20.35;6.20;;;;;;;;;;4962857;28;20650;-72
2023/07/02 04:45:56;;;;;;;16.73;6.22;;;;;;;;;;4971026;28;20192;-72
2023/07/02 04:48:21;;;;;;;15.48;6.80;;;;;;;;;;4966423;28;20179;-71
2023/07/02 04:50:46;;;;;;;17.25;6.57;;;;;;;;;;4966856;28;20169;-72
2023/07/02 04:53:11;;;;;;;14.90;5.50;;;;;;;;;;4965333;28;20746;-72
2023/07/02 04:55:37;;;;;;;15.73;5.20;;;;;;;;;;4958328;28;20201;-72
2023/07/02 04:58:02;;;;;;;23.63;6.93;;;;;;;;;;4966975;28;20235;-71
2023/07/02 05:00:27;;;;;;;14.00;5.82;;;;;;;;;;4962524;28;20186;-71
2023/07/02 05:02:52;;;;;;;13.10;5.97;;;;;;;;;;4967241;28;20211;-71
2023/07/02 05:05:18;;;;;;;16.52;6.15;;;;;;;;;;4968291;28;20180;-71
2023/07/02 05:07:43;;;;;;;14.48;5.40;;;;;;;;;;4970700;28;20212;-72
2023/07/02 05:10:08;;;;;;;12.75;5.25;;;;;;;;;;4963229;28;20693;-72
2023/07/02 05:12:34;;;;;;;9.15;4.70;;;;;;;;;;4964416;28;20207;-71
2023/07/02 05:14:59;;;;;;;14.50;5.20;;;;;;;;;;4965181;28;20279;-72
2023/07/02 05:17:24;;;;;;;15.52;4.35;;;;;;;;;;4961555;28;20584;-72
2023/07/02 05:19:49;;;;;;;14.70;5.10;;;;;;;;;;4964645;28;20177;-72
2023/07/02 05:22:15;;;;;;;15.13;5.18;;;;;;;;;;4969009;28;20218;-72
2023/07/02 05:24:40;;;;;;;14.48;5.88;;;;;;;;;;4965383;28;20207;-73
2023/07/02 05:27:06;;;;;;;14.30;5.15;;;;;;;;;;4961614;28;20196;-72
2023/07/02 05:29:31;;;;;;;11.80;5.05;;;;;;;;;;4960915;28;20552;-71
2023/07/02 05:31:56;;;;;;;13.07;5.13;;;;;;;;;;4961455;28;20192;-72
2023/07/02 05:34:21;;;;;;;14.20;5.05;;;;;;;;;;4963252;28;20188;-71
2023/07/02 05:36:47;;;;;;;16.65;5.10;;;;;;;;;;4951268;28;20299;-71
2023/07/02 05:39:12;;;;;;;13.18;5.30;;;;;;;;;;4960431;28;20196;-71
2023/07/02 05:41:37;;;;;;;17.80;5.10;;;;;;;;;;4968759;28;20196;-71
2023/07/02 05:44:02;;;;;;;9.75;4.95;;;;;;;;;;4962107;28;20663;-71
2023/07/02 05:46:28;;;;;;;14.25;4.90;;;;;;;;;;4965508;28;20627;-72
2023/07/02 05:48:56;;;;;;;13.52;5.07;;;;;;;;;;4968446;28;20177;-71
2023/07/02 05:51:24;;;;;;;16.90;4.43;;;;;;;;;;4964976;28;20185;-72
2023/07/02 05:53:49;;;;;;;11.25;4.68;;;;;;;;;;4965850;28;20220;-70
2023/07/02 05:56:15;;;;;;;14.95;5.72;;;;;;;;;;4970974;28;20187;-70
2023/07/02 05:58:40;;;;;;;12.57;4.68;;;;;;;;;;4970629;28;20181;-70
2023/07/02 06:01:06;;;;;;;16.05;4.90;;;;;;;;;;4959018;28;20570;-72
2023/07/02 06:03:31;;;;;;;10.77;4.57;;;;;;;;;;4965013;28;20278;-71
2023/07/02 06:05:56;;;;;;;10.50;4.35;;;;;;;;;;4971430;28;20208;-71
2023/07/02 06:08:21;;;;;;;12.57;4.10;;;;;;;;;;4994300;23;20741;-68
2023/07/02 06:10:47;;;;;;;14.65;4.18;;;;;;;;;;4973450;28;20195;-68
2023/07/02 06:13:12;;;;;;;15.35;4.35;;;;;;;;;;4985210;28;20188;-68
2023/07/02 06:15:37;;;;;;;10.10;3.95;;;;;;;;;;4978392;28;20615;-68
2023/07/02 06:18:03;;;;;;;14.43;3.75;;;;;;;;;;4968554;28;20231;-68
2023/07/02 06:20:28;;;;;;;9.57;3.90;;;;;;;;;;4971161;28;20239;-68
2023/07/02 06:22:53;;;;;;;11.95;5.30;;;;;;;;;;4965321;28;20211;-68
2023/07/02 06:25:19;;;;;;;10.93;3.67;;;;;;;;;;4957355;28;20203;-68
2023/07/02 06:27:44;;;;;;;10.68;4.60;;;;;;;;;;4959770;28;20201;-67
2023/07/02 06:30:09;;;;;;;9.13;4.38;;;;;;;;;;4959256;28;20249;-68
2023/07/02 06:32:34;;;;;;;10.43;3.53;;;;;;;;;;4958709;28;20710;-68
2023/07/02 06:35:00;;;;;;;11.38;4.43;;;;;;;;;;4963945;28;20196;-67
2023/07/02 06:37:25;;;;;;;9.30;3.88;;;;;;;;;;4970187;28;20201;-67
2023/07/02 06:39:50;;;;;;;15.85;4.30;;;;;;;;;;4960347;28;20185;-67
2023/07/02 06:42:15;;;;;;;7.28;4.13;;;;;;;;;;4954327;28;20240;-67
2023/07/02 06:44:41;;;;;;;10.85;4.28;;;;;;;;;;4958211;28;20634;-67
2023/07/02 06:47:07;;;;;;;8.90;4.15;;;;;;;;;;4958106;28;20208;-69
2023/07/02 06:49:32;;;;;;;9.85;4.47;;;;;;;;;;4955775;28;20290;-67
2023/07/02 06:52:00;;;;;;;14.65;4.68;;;;;;;;;;4960811;28;20173;-67
2023/07/02 06:54:25;;;;;;;10.25;3.90;;;;;;;;;;4961292;28;20571;-66
2023/07/02 06:56:50;;;;;;;10.68;4.95;;;;;;;;;;4954426;28;20219;-66
2023/07/02 06:59:19;;;;;;;8.93;4.03;;;;;;;;;;4955468;28;20232;-67
2023/07/02 07:01:45;;;;;;;9.50;3.85;;;;;;;;;;4950320;28;20237;-67
2023/07/02 07:04:10;;;;;;;12.00;3.78;;;;;;;;;;4962396;28;20939;-67
2023/07/02 07:06:37;;;;;;;11.13;3.72;;;;;;;;;;4964922;28;20204;-68
2023/07/02 07:09:03;;;;;;;9.30;4.25;;;;;;;;;;4950483;28;20276;-67
2023/07/02 07:11:28;;;;;;;7.38;3.33;;;;;;;;;;4963318;28;20268;-67
2023/07/02 07:13:53;;;;;;;10.00;3.28;;;;;;;;;;4968242;28;20172;-67
2023/07/02 07:16:19;;;;;;;9.05;3.97;;;;;;;;;;4964949;28;20184;-67
2023/07/02 07:18:44;;;;;;;7.28;3.33;;;;;;;;;;4963123;28;20712;-67
2023/07/02 07:21:09;;;;;;;8.50;3.25;;;;;;;;;;4954432;28;20183;-68
2023/07/02 07:23:35;;;;;;;8.90;4.50;;;;;;;;;;4955334;28;20180;-68
2023/07/02 07:26:00;;;;;;;10.75;3.90;;;;;;;;;;4946155;28;20185;-66
2023/07/02 07:28:25;;;;;;;10.10;3.63;;;;;;;;;;4962231;28;20303;-67
2023/07/02 07:30:50;;;;;;;7.15;3.28;;;;;;;;;;4959447;28;20192;-67
2023/07/02 07:33:16;;;;;;;5.90;3.13;;;;;;;;;;4958954;28;20212;-67
2023/07/02 07:35:41;;;;;;;7.07;3.22;;;;;;;;;;4960676;28;20185;-67
2023/07/02 07:38:06;;;;;;;10.18;3.75;;;;;;;;;;4959717;28;20212;-67
2023/07/02 07:40:31;;;;;;;5.32;2.55;;;;;;;;;;4964610;28;20172;-67
2023/07/02 07:42:56;;;;;;;9.73;3.55;;;;;;;;;;4957759;28;20573;-66
2023/07/02 07:45:22;;;;;;;9.30;3.63;;;;;;;;;;4949797;28;20204;-67
2023/07/02 07:47:47;;;;;;;10.23;3.40;;;;;;;;;;4957214;28;20232;-67
2023/07/02 07:50:12;;;;;;;6.82;2.95;;;;;;;;;;4950437;28;20229;-67
2023/07/02 07:52:38;;;;;;;6.80;3.72;;;;;;;;;;4943403;28;20196;-67
2023/07/02 07:55:04;;;;;;;8.85;3.78;;;;;;;;;;4948855;28;20188;-67
2023/07/02 07:57:29;;;;;;;12.57;3.90;;;;;;;;;;4957323;28;20205;-68
2023/07/02 07:59:54;;;;;;;10.53;3.13;;;;;;;;;;4958573;28;20678;-68
2023/07/02 08:02:19;;;;;;;10.80;3.58;;;;;;;;;;4956563;28;20553;-67
2023/07/02 08:04:44;;;;;;;7.10;3.67;;;;;;;;;;4955635;28;20251;-68
2023/07/02 08:07:10;;;;;;;9.88;3.88;;;;;;;;;;4958023;28;20303;-67
2023/07/02 08:09:35;;;;;;;12.70;3.58;;;;;;;;;;4948353;28;20207;-67
2023/07/02 08:12:00;;;;;;;8.60;3.08;;;;;;;;;;4945454;28;20268;-67
2023/07/02 08:14:25;;;;;;;7.65;3.05;;;;;;;;;;4954862;28;20181;-67
2023/07/02 08:16:51;;;;;;;10.50;4.05;;;;;;;;;;4969105;28;20687;-67
2023/07/02 08:19:16;;;;;;;8.50;3.13;;;;;;;;;;4954949;28;20242;-67
2023/07/02 08:21:41;;;;;;;9.65;3.50;;;;;;;;;;4952930;28;20219;-67
2023/07/02 08:24:07;;;;;;;7.68;2.72;;;;;;;;;;4954326;28;20179;-67
2023/07/02 08:26:32;;;;;;;10.13;2.47;;;;;;;;;;4954291;28;20177;-69
2023/07/02 08:28:57;;;;;;;7.85;2.65;;;;;;;;;;4953204;28;20260;-67
2023/07/02 08:31:23;;;;;;;6.68;3.50;;;;;;;;;;4942325;28;20219;-67
2023/07/02 08:33:48;;;;;;;6.03;3.15;;;;;;;;;;4953722;28;20177;-67
2023/07/02 08:36:13;;;;;;;3.95;3.15;;;;;;;;;;4954844;28;20659;-67
2023/07/02 08:38:41;;;;;;;8.07;2.90;;;;;;;;;;4952373;28;20197;-67
2023/07/02 08:41:06;;;;;;;8.45;3.33;;;;;;;;;;4953290;28;20354;-67
2023/07/02 08:43:32;;;;;;;8.85;2.95;;;;;;;;;;4962062;28;20283;-67
2023/07/02 08:45:57;;;;;;;8.82;3.05;;;;;;;;;;4956101;28;20358;-67
2023/07/02 08:48:24;;;;;;;8.50;3.25;;;;;;;;;;4947950;28;20683;-67
2023/07/02 08:50:49;;;;;;;9.90;2.83;;;;;;;;;;4961330;28;20183;-67
2023/07/02 08:53:15;;;;;;;4.72;2.40;;;;;;;;;;4966672;28;20262;-67
2023/07/02 08:55:40;;;;;;;6.88;2.33;;;;;;;;;;4952807;28;20192;-68
2023/07/02 08:58:05;;;;;;;6.82;2.55;;;;;;;;;;4946774;28;20197;-68
2023/07/02 09:00:35;;;;;;;9.35;2.80;;;;;;;;;;4951795;28;20188;-68
2023/07/02 09:03:10;;;;;;;5.43;2.90;;;;;;;;;;4936167;28;20255;-66
2023/07/02 09:05:35;;;;;;;8.10;3.10;;;;;;;;;;4934122;28;20236;-66
2023/07/02 09:08:00;;;;;;;18.88;3.53;;;;;;;;;;4944446;28;20303;-67
2023/07/02 09:10:27;;;;;;;3.67;1.88;;;;;;;;;;4952121;28;20658;-67
2023/07/02 09:13:02;;;;;;;5.97;2.38;;;;;;;;;;4952470;28;20209;-66
2023/07/02 09:15:34;;;;;;;7.93;3.30;;;;;;;;;;4953233;28;20662;-67
2023/07/02 09:17:59;;;;;;;5.72;2.25;;;;;;;;;;4953551;28;20216;-66
2023/07/02 09:20:32;;;;;;;8.10;2.28;;;;;;;;;;4954555;28;20179;-67
2023/07/02 09:22:57;;;;;;;3.30;1.90;;;;;;;;;;4959416;28;20204;-67
2023/07/02 09:25:33;;;;;;;6.70;2.08;;;;;;;;;;4954167;28;20263;-66
2023/07/02 09:27:58;;;;;;;6.15;2.65;;;;;;;;;;4954708;28;20250;-67
2023/07/02 09:30:23;;;;;;;10.13;2.88;;;;;;;;;;4962741;28;20184;-67
2023/07/02 09:32:48;;;;;;;5.90;2.58;;;;;;;;;;4951661;28;20173;-66
2023/07/02 09:35:14;;;;;;;6.50;2.43;;;;;;;;;;4949125;28;20182;-67
2023/07/02 09:37:41;;;;;;;3.15;1.92;;;;;;;;;;4969099;28;20759;-66
2023/07/02 09:40:08;;;;;;;5.40;2.30;;;;;;;;;;4965393;28;20184;-66
2023/07/02 09:42:34;;;;;;;4.85;2.45;;;;;;;;;;4956720;28;20205;-66
2023/07/02 09:45:00;;;;;;;3.97;2.13;;;;;;;;;;4955928;28;20670;-70
2023/07/02 09:47:26;;;;;;;5.22;2.35;;;;;;;;;;4957816;28;20267;-66
2023/07/02 09:49:51;;;;;;;5.20;2.15;;;;;;;;;;4959406;28;20653;-67
2023/07/02 09:52:16;;;;;;;5.40;2.00;;;;;;;;;;4965086;28;20184;-67
2023/07/02 09:54:42;;;;;;;5.78;2.28;;;;;;;;;;4959341;28;20434;-67
2023/07/02 09:57:07;;;;;;;4.25;2.72;;;;;;;;;;4960349;28;20675;-67
2023/07/02 09:59:32;;;;;;;4.00;2.22;;;;;;;;;;4960640;28;20534;-67
2023/07/02 10:01:58;;;;;;;3.78;2.22;;;;;;;;;;4963829;28;20207;-67
2023/07/02 10:04:26;;;;;;;4.50;2.20;;;;;;;;;;4970265;28;20177;-67
2023/07/02 10:06:52;;;;;;;6.47;1.42;;;;;;;;;;4970809;28;20256;-68
2023/07/02 10:09:18;;;;;;;3.75;1.58;;;;;;;;;;4964603;28;20181;-68
2023/07/02 10:11:44;;;;;;;3.42;1.65;;;;;;;;;;4953016;28;20556;-66
2023/07/02 10:14:09;;;;;;;3.75;1.33;;;;;;;;;;4962417;28;20231;-66
2023/07/02 10:16:48;;;;;;;7.13;2.47;;;;;;;;;;4938544;28;20268;-67
2023/07/02 10:19:13;;;;;;;4.05;1.80;;;;;;;;;;4955255;28;20180;-67
2023/07/02 10:21:38;;;;;;;3.40;1.85;;;;;;;;;;4952833;28;20583;-66
2023/07/02 10:24:11;;;;;;;3.20;1.90;;;;;;;;;;4954246;28;20277;-67
2023/07/02 10:26:36;;;;;;;5.13;1.90;;;;;;;;;;4958199;28;20189;-67
2023/07/02 10:29:02;;;;;;;8.05;2.20;;;;;;;;;;4960092;28;20188;-67
2023/07/02 10:31:27;;;;;;;5.35;2.08;;;;;;;;;;4956181;28;20181;-67
2023/07/02 10:33:52;;;;;;;5.25;2.25;;;;;;;;;;4953384;28;20711;-67
2023/07/02 10:36:22;;;;;;;4.95;2.20;;;;;;;;;;4953339;28;20176;-67
2023/07/02 10:38:48;;;;;;;4.60;2.40;;;;;;;;;;4955614;28;20172;-66
2023/07/02 10:41:23;;;;;;;5.40;2.40;;;;;;;;;;4956198;28;20187;-67
2023/07/02 10:43:48;;;;;;;4.65;1.80;;;;;;;;;;4948352;28;20204;-67
2023/07/02 10:46:18;;;;;;;6.67;2.67;;;;;;;;;;4961651;28;20262;-67
2023/07/02 10:48:50;;;;;;;3.38;2.10;;;;;;;;;;4948723;28;20427;-67
2023/07/02 10:51:15;;;;;;;5.13;2.17;;;;;;;;;;4953863;28;20655;-67
2023/07/02 10:53:41;;;;;;;4.00;2.03;;;;;;;;;;4949087;28;20192;-68
2023/07/02 10:56:06;;;;;;;3.03;2.00;;;;;;;;;;4951148;28;20264;-68
2023/07/02 10:58:31;;;;;;;6.57;3.00;;;;;;;;;;4953834;28;20291;-68
2023/07/02 11:00:56;;;;;;;3.58;2.05;;;;;;;;;;4952428;28;20210;-66
2023/07/02 11:03:23;;;;;;;5.35;2.75;;;;;;;;;;4952159;28;20212;-67
2023/07/02 11:05:49;;;;;;;3.83;2.17;;;;;;;;;;4933892;28;20181;-67
2023/07/02 11:08:14;;;;;;;4.97;1.92;;;;;;;;;;4934808;28;20731;-67
2023/07/02 11:10:39;;;;;;;4.45;2.00;;;;;;;;;;4933982;28;20251;-67
2023/07/02 11:13:15;;;;;;;3.72;1.73;;;;;;;;;;4952627;28;20184;-67
2023/07/02 11:15:45;;;;;;;8.98;2.70;;;;;;;;;;4955467;28;20259;-67
2023/07/02 11:18:11;;;;;;;5.85;2.00;;;;;;;;;;4954071;28;20572;-66
2023/07/02 11:20:37;;;;;;;3.08;2.08;;;;;;;;;;4940624;28;20185;-67
2023/07/02 11:23:02;;;;;;;5.60;2.10;;;;;;;;;;4934160;28;20212;-67
2023/07/02 11:25:28;;;;;;;5.55;2.50;;;;;;;;;;4934918;28;20695;-67
2023/07/02 11:28:03;;;;;;;4.85;2.33;;;;;;;;;;4933923;28;20201;-67
2023/07/02 11:30:28;;;;;;;5.35;2.17;;;;;;;;;;4934097;28;20188;-67
2023/07/02 11:32:54;;;;;;;2.88;1.95;;;;;;;;;;4933104;28;20614;-65
2023/07/02 11:35:20;;;;;;;5.05;2.40;;;;;;;;;;4935566;28;20610;-65
2023/07/02 11:37:46;;;;;;;5.63;2.25;;;;;;;;;;4934021;28;20203;-66
2023/07/02 11:40:11;;;;;;;9.80;2.90;;;;;;;;;;4934312;28;20244;-67
2023/07/02 11:42:37;;;;;;;6.15;3.13;;;;;;;;;;4960922;28;20335;-66
2023/07/02 11:45:03;;;;;;;6.47;3.05;;;;;;;;;;4934477;28;20279;-67
2023/07/02 11:47:28;;;;;;;4.60;2.65;;;;;;;;;;4935248;28;20197;-67
2023/07/02 11:49:54;;;;;;;6.05;2.35;;;;;;;;;;4932507;28;20208;-66
2023/07/02 11:52:20;;;;;;;3.78;2.55;;;;;;;;;;4935560;28;20239;-67
2023/07/02 11:54:47;;;;;;;6.63;2.53;;;;;;;;;;4934338;28;20217;-67
2023/07/02 11:57:12;;;;;;;3.38;2.05;;;;;;;;;;4934478;28;20592;-68
2023/07/02 11:59:37;;;;;;;5.13;2.70;;;;;;;;;;4931668;28;20644;-66
2023/07/02 12:02:03;;;;;;;4.45;1.95;;;;;;;;;;4936887;28;20305;-67
2023/07/02 12:04:28;;;;;;;4.35;2.60;;;;;;;;;;4933908;28;20240;-67
2023/07/02 12:06:53;;;;;;;8.43;2.55;;;;;;;;;;4948443;23;20220;-71
2023/07/02 12:09:18;;;;;;;4.65;2.13;;;;;;;;;;4953352;28;20208;-71
2023/07/02 12:11:45;;;;;;;4.95;3.33;;;;;;;;;;4957766;28;20662;-68
2023/07/02 12:14:10;;;;;;;6.30;2.58;;;;;;;;;;4969362;28;20190;-71
2023/07/02 12:16:35;;;;;;;6.68;2.85;;;;;;;;;;4963731;28;20191;-70
2023/07/02 12:19:01;;;;;;;5.43;2.80;;;;;;;;;;4955217;28;20291;-70
2023/07/02 12:21:26;;;;;;;4.55;2.67;;;;;;;;;;4971253;28;20211;-72
2023/07/02 12:23:51;;;;;;;5.88;2.90;;;;;;;;;;4964847;28;20188;-72
2023/07/02 12:26:16;;;;;;;4.07;2.88;;;;;;;;;;4968373;28;20172;-72
2023/07/02 12:28:41;;;;;;;5.70;3.42;;;;;;;;;;4956477;28;20212;-72
2023/07/02 12:31:07;;;;;;;4.93;2.90;;;;;;;;;;4951807;28;20188;-72
2023/07/02 12:33:32;;;;;;;5.38;2.60;;;;;;;;;;4954836;28;20188;-70
2023/07/02 12:35:59;;;;;;;3.80;2.25;;;;;;;;;;4955482;28;20672;-69
2023/07/02 12:38:24;;;;;;;8.93;2.70;;;;;;;;;;4955149;28;20205;-72
2023/07/02 12:40:49;;;;;;;6.57;2.40;;;;;;;;;;4953339;28;20239;-69
2023/07/02 12:43:15;;;;;;;5.40;2.75;;;;;;;;;;4957328;28;20207;-70
2023/07/02 12:45:40;;;;;;;5.53;2.75;;;;;;;;;;4956989;28;20421;-71
2023/07/02 12:48:05;;;;;;;6.68;3.15;;;;;;;;;;4957612;28;20200;-71
2023/07/02 12:50:30;;;;;;;7.40;3.22;;;;;;;;;;4954349;28;20185;-71
2023/07/02 12:52:56;;;;;;;5.22;2.85;;;;;;;;;;4954742;28;20535;-71
2023/07/02 12:55:21;;;;;;;9.10;3.30;;;;;;;;;;4955536;28;20188;-70
2023/07/02 12:57:46;;;;;;;7.90;2.80;;;;;;;;;;4958003;28;20230;-72
2023/07/02 13:00:11;;;;;;;8.48;3.00;;;;;;;;;;4967732;28;20290;-71
2023/07/02 13:02:37;;;;;;;9.00;3.30;;;;;;;;;;4953004;28;20832;-72
2023/07/02 13:05:02;;;;;;;5.07;2.83;;;;;;;;;;4954469;28;20602;-70
2023/07/02 13:07:29;;;;;;;8.38;3.42;;;;;;;;;;4955636;28;20497;-72
2023/07/02 13:09:55;;;;;;;6.53;3.30;;;;;;;;;;4955459;28;20188;-70
2023/07/02 13:12:20;;;;;;;4.55;2.70;;;;;;;;;;4959126;28;20286;-72
2023/07/02 13:14:45;;;;;;;8.57;2.88;;;;;;;;;;4959862;28;20215;-73
2023/07/02 13:17:10;;;;;;;6.82;2.50;;;;;;;;;;4959358;28;20414;-70
2023/07/02 13:19:36;;;;;;;5.10;2.47;;;;;;;;;;4959033;28;20928;-72
2023/07/02 13:22:01;;;;;;;6.80;3.13;;;;;;;;;;4955811;28;20247;-72
2023/07/02 13:24:28;;;;;;;6.57;3.58;;;;;;;;;;4957677;28;20204;-71
2023/07/02 13:26:53;;;;;;;8.00;3.00;;;;;;;;;;4959132;28;20191;-70
2023/07/02 13:29:18;;;;;;;6.20;2.80;;;;;;;;;;4957111;28;20684;-71
2023/07/02 13:31:44;;;;;;;6.40;3.50;;;;;;;;;;4958378;28;20176;-72
2023/07/02 13:34:09;;;;;;;6.30;2.85;;;;;;;;;;4959849;28;20326;-71
2023/07/02 13:36:34;;;;;;;7.30;3.65;;;;;;;;;;4958020;28;20192;-72
2023/07/02 13:38:59;;;;;;;5.57;2.65;;;;;;;;;;4957972;28;20211;-71
2023/07/02 13:41:25;;;;;;;5.85;2.88;;;;;;;;;;4956350;28;20187;-71
2023/07/02 13:43:50;;;;;;;6.47;3.55;;;;;;;;;;4957394;28;20223;-71
2023/07/02 13:46:15;;;;;;;6.57;3.25;;;;;;;;;;4958358;28;20247;-70
2023/07/02 13:48:40;;;;;;;4.93;2.55;;;;;;;;;;4956197;28;20304;-72
2023/07/02 13:51:07;;;;;;;7.07;3.50;;;;;;;;;;4955105;28;20211;-71
2023/07/02 13:53:33;;;;;;;8.02;3.30;;;;;;;;;;4957935;28;20666;-70
2023/07/02 13:55:58;;;;;;;6.68;2.95;;;;;;;;;;4955641;28;20239;-71
2023/07/02 13:58:23;;;;;;;5.38;2.88;;;;;;;;;;4954963;28;20240;-71
2023/07/02 14:00:48;;;;;;;5.45;3.42;;;;;;;;;;4958147;28;20754;-71
2023/07/02 14:03:14;;;;;;;9.27;3.78;;;;;;;;;;4958390;28;20444;-71
2023/07/02 14:05:39;;;;;;;6.03;3.20;;;;;;;;;;4956038;28;20172;-71
2023/07/02 14:08:05;;;;;;;6.65;3.13;;;;;;;;;;4970556;28;20667;-71
2023/07/02 14:10:30;;;;;;;5.10;3.03;;;;;;;;;;4956512;28;20667;-70
2023/07/02 14:12:55;;;;;;;8.23;2.45;;;;;;;;;;4963551;28;20437;-71
2023/07/02 14:15:21;;;;;;;7.97;3.05;;;;;;;;;;4958546;28;20192;-72
2023/07/02 14:17:46;;;;;;;5.03;3.17;;;;;;;;;;4955265;28;20212;-71
2023/07/02 14:20:12;;;;;;;3.80;2.63;;;;;;;;;;4955791;28;20689;-72
2023/07/02 14:22:37;;;;;;;4.95;3.00;;;;;;;;;;4955689;28;21058;-72
2023/07/02 14:25:02;;;;;;;9.60;2.78;;;;;;;;;;4956495;28;20180;-72
2023/07/02 14:27:28;;;;;;;6.28;3.22;;;;;;;;;;4954389;28;20697;-71